Moose Lake, MN

3:01 AM CDT on July 04, 2015 (GMT -0500)
Moose Lake-Carlton County | | Change Station
CLOSE
Current Station
Airport
Location: Moose Lake,
Elevation: 1076 ft
Nearby Weather Stations

Elev 1076 ft 46.42 °N, 92.80 °W | Updated 7 minutes ago

Mist
Mist
55 °F
Feels Like 55 °F
N
0
Wind Variable Wind from North

Today
High -- | Low -- °F
--% Chance of Precip.
Yesterday
High -- | Low -- °F
Precip. -- in
5:24 AM 9:06 PM
Waning Gibbous, 93% visible
Pressure 29.91 in
Visibility 0.8 miles
Clouds
Dew Point 54 °F
Humidity 94%
Rainfall 0.00 in
Snow Depth Not available.
UV Not available.
Pollen 4.90 out of 12
Air Quality Not available.
Flu Activity Not available.
METAR KMZH 040754Z AUTO 00000KT 3/4SM BR VV005 13/12 A2991 RMK AO2

More Conditions Fewer Conditions

Pressure 29.91 in
Visibility 0.8 miles
Clouds
Dew Point 54 °F
Humidity 94%
Rainfall 0.00 in
Snow Depth Not available.
UV Not available.
Pollen 4.90 out of 12
Air Quality Not available.
Flu Activity Not available.
METAR KMZH 040754Z AUTO 00000KT 3/4SM BR VV005 13/12 A2991 RMK AO2

More Conditions Fewer Conditions

10-Day Weather Forecast

×

Almanac

Astronomy

Jul. 04, 2015 Rise Set
Actual Time
Civil Twilight
Nautical Twilight
Astronomical Twilight
Moon
Length of Visible Light
Length of Day
Tomorrow will be .
, % of the Moon is Illuminated

Today's Extremes

State Highs State Lows

Community

WunderPhotos

Upload Photos

1,834,930 photos uploaded!

WunderBlogs® & News

Nearby

Air Quality

  Air Quality AQ Index Pollutant
Not available.

Snow Depth

Station Depth Elevation

Earthquake Activity

City Distance Mag. Time & Date
Minimum magnitude displayed is 2.5.

Coastal Water Temperatures

Place Temperature

Stations

Nearby Weather Stations

Station Location Temp. Windchill Dew Point Humidity Wind Precip. Elev Updated Type